Time;durP1;ratioP1;P1;durP2;ratioP2;P2;SDS_P1;SDS_P2;PMS_P1;PMS_P2;Temp;Humidity;BMP_temperature;BMP_pressure;BME280_temperature;BME280_humidity;BME280_pressure;Samples;Min_cycle;Max_cycle;Signal;HPM_P1;HPM_P2
2022/08/28 00:01:45;;;;;;;12.40;3.00;;;24.10;92.60;;;;;;7563610;77;26311;-61
2022/08/28 00:11:49;;;;;;;4.85;2.17;;;24.00;92.80;;;;;;7522882;78;26249;-58
2022/08/28 00:21:52;;;;;;;3.35;2.10;;;24.00;93.00;;;;;;7544967;77;26850;-59
2022/08/28 00:31:56;;;;;;;3.83;2.20;;;24.00;93.10;;;;;;7564912;77;26739;-61
2022/08/28 00:41:58;;;;;;;6.83;2.67;;;24.00;93.10;;;;;;7573544;77;26314;-60
2022/08/28 00:52:04;;;;;;;4.67;2.72;;;23.90;93.20;;;;;;7545587;78;26395;-60
2022/08/28 01:02:08;;;;;;;5.72;2.47;;;23.90;93.30;;;;;;7512123;78;26319;-59
2022/08/28 01:12:19;;;;;;;5.15;2.50;;;23.90;93.50;;;;;;7522869;78;26279;-62
2022/08/28 01:22:46;;;;;;;5.12;2.35;;;23.90;93.60;;;;;;7540417;78;26817;-60
2022/08/28 01:32:52;;;;;;;3.08;2.10;;;23.80;93.60;;;;;;7533968;78;26249;-59
2022/08/28 01:42:55;;;;;;;3.67;2.40;;;23.80;93.60;;;;;;7577476;77;26246;-61
2022/08/28 01:52:57;;;;;;;6.45;2.55;;;23.80;93.70;;;;;;7571258;77;26262;-62
2022/08/28 02:03:00;;;;;;;4.53;2.77;;;23.80;93.90;;;;;;7577384;77;26305;-63
2022/08/28 02:13:04;;;;;;;3.67;2.20;;;23.80;93.90;;;;;;7577483;77;27040;-62
2022/08/28 02:23:07;;;;;;;4.08;2.80;;;23.80;94.10;;;;;;7572605;77;26234;-60
2022/08/28 02:33:09;;;;;;;3.30;1.87;;;23.80;94.00;;;;;;7577786;77;26258;-62
2022/08/28 02:43:12;;;;;;;3.92;2.35;;;23.80;94.10;;;;;;7538827;78;26237;-62
2022/08/28 02:53:14;;;;;;;5.08;2.50;;;23.70;93.90;;;;;;7527291;78;26722;-62
2022/08/28 03:03:17;;;;;;;5.05;2.70;;;23.70;94.00;;;;;;7523125;78;26237;-62
2022/08/28 03:13:20;;;;;;;5.40;2.40;;;23.70;94.30;;;;;;7523228;78;26652;-62
2022/08/28 03:23:25;;;;;;;5.05;2.47;;;23.70;94.20;;;;;;7527334;78;26307;-60
2022/08/28 03:33:28;;;;;;;3.98;2.35;;;23.70;94.10;;;;;;7522971;78;26374;-62
2022/08/28 03:43:31;;;;;;;6.87;2.22;;;23.60;94.10;;;;;;7522926;78;26280;-59
2022/08/28 03:53:33;;;;;;;4.78;2.60;;;23.60;94.10;;;;;;7570805;77;26347;-60
2022/08/28 04:03:36;;;;;;;6.47;2.22;;;23.60;94.20;;;;;;7578001;77;26277;-62
2022/08/28 04:13:40;;;;;;;4.40;2.30;;;23.60;94.20;;;;;;7577688;77;26814;-63
2022/08/28 04:23:44;;;;;;;7.78;2.33;;;23.60;94.30;;;;;;7571848;77;26320;-62
2022/08/28 04:33:47;;;;;;;3.25;2.22;;;23.60;94.20;;;;;;7552405;77;26346;-63
2022/08/28 04:43:51;;;;;;;4.65;2.20;;;23.50;94.10;;;;;;7521455;78;26314;-63
2022/08/28 04:53:54;;;;;;;6.00;2.60;;;23.50;94.20;;;;;;7549020;78;26269;-63
2022/08/28 05:03:59;;;;;;;4.65;2.50;;;23.50;94.30;;;;;;7577765;77;26258;-61
2022/08/28 05:14:08;;;;;;;7.35;2.72;;;23.50;94.40;;;;;;7577824;77;26352;-61
2022/08/28 05:24:12;;;;;;;6.22;2.52;;;23.50;94.30;;;;;;7560447;78;26242;-61
2022/08/28 05:34:16;;;;;;;5.00;2.20;;;23.40;94.10;;;;;;7577474;77;26744;-61
2022/08/28 05:44:19;;;;;;;5.00;2.42;;;23.40;94.10;;;;;;7562968;77;26249;-61
2022/08/28 05:54:22;;;;;;;5.78;2.27;;;23.40;94.20;;;;;;7527491;77;26347;-61
2022/08/28 06:04:27;;;;;;;5.05;2.70;;;23.40;93.50;;;;;;7528137;78;26249;-62
2022/08/28 06:14:30;;;;;;;5.00;2.22;;;23.40;93.50;;;;;;7517756;78;26249;-61
2022/08/28 06:24:33;;;;;;;5.22;2.40;;;23.40;93.30;;;;;;7518707;78;26303;-61
2022/08/28 06:34:35;;;;;;;6.45;2.20;;;23.30;93.30;;;;;;7528038;78;26246;-61
2022/08/28 06:44:38;;;;;;;7.42;1.87;;;23.20;93.30;;;;;;7533657;77;26345;-60
2022/08/28 06:54:40;;;;;;;8.35;2.55;;;23.30;93.10;;;;;;7521426;78;26708;-61
2022/08/28 07:04:43;;;;;;;8.00;2.52;;;23.30;92.60;;;;;;7523063;77;26254;-61
2022/08/28 07:14:45;;;;;;;9.93;2.52;;;23.10;93.10;;;;;;7529601;78;26366;-61
2022/08/28 07:24:48;;;;;;;5.92;2.52;;;23.20;92.90;;;;;;7522570;78;26787;-61
2022/08/28 07:34:50;;;;;;;6.85;1.90;;;23.30;92.50;;;;;;7530498;77;26296;-59
2022/08/28 07:44:53;;;;;;;7.30;2.62;;;23.30;92.40;;;;;;7561451;77;26868;-60
2022/08/28 07:54:56;;;;;;;6.12;2.22;;;23.40;91.80;;;;;;7559209;77;26829;-58
2022/08/28 08:04:59;;;;;;;7.83;2.30;;;23.50;91.70;;;;;;7525813;78;26406;-60
2022/08/28 08:15:01;;;;;;;8.03;2.12;;;23.50;92.00;;;;;;7526592;78;26794;-58
2022/08/28 08:25:05;;;;;;;8.45;2.62;;;23.50;91.30;;;;;;7523701;78;26305;-60
2022/08/28 08:35:11;;;;;;;6.80;2.60;;;23.50;91.20;;;;;;7516103;77;26303;-58
2022/08/28 08:45:15;;;;;;;6.97;2.35;;;23.60;91.10;;;;;;7528099;77;26242;-59
2022/08/28 08:55:34;;;;;;;6.00;2.02;;;23.60;90.80;;;;;;7527650;78;26328;-60
2022/08/28 09:05:42;;;;;;;4.78;1.90;;;23.70;91.00;;;;;;7532432;77;26320;-60
2022/08/28 09:15:45;;;;;;;8.68;2.10;;;23.70;91.10;;;;;;7525512;77;26285;-61
2022/08/28 09:25:54;;;;;;;7.08;1.90;;;23.70;91.50;;;;;;7539618;78;26318;-61
2022/08/28 09:35:56;;;;;;;9.23;2.33;;;23.70;91.60;;;;;;7534107;78;26747;-60
2022/08/28 09:46:02;;;;;;;16.73;2.30;;;23.70;90.70;;;;;;7528609;77;26254;-60
2022/08/28 09:56:18;;;;;;;16.32;3.55;;;23.70;92.10;;;;;;7526417;78;26394;-60
2022/08/28 10:06:27;;;;;;;17.07;2.60;;;23.80;91.70;;;;;;7547676;77;26309;-59
2022/08/28 10:16:33;;;;;;;9.28;2.47;;;23.80;91.60;;;;;;7513212;77;26249;-59
2022/08/28 10:26:44;;;;;;;16.25;2.75;;;23.80;91.80;;;;;;7528483;77;26252;-59
2022/08/28 10:36:50;;;;;;;26.27;3.90;;;23.80;92.20;;;;;;7535613;77;26257;-59
2022/08/28 10:46:56;;;;;;;15.75;2.50;;;23.90;92.40;;;;;;7531205;78;26272;-59
2022/08/28 10:57:10;;;;;;;7.05;2.02;;;23.90;90.90;;;;;;7504117;77;27054;-60
2022/08/28 11:07:15;;;;;;;16.62;2.35;;;23.80;87.20;;;;;;7520270;78;26282;-59
2022/08/28 11:17:27;;;;;;;5.70;2.17;;;23.70;86.70;;;;;;7549528;78;26242;-59
2022/08/28 11:27:35;;;;;;;9.50;1.50;;;23.90;89.40;;;;;;7577922;77;26246;-58
2022/08/28 11:37:43;;;;;;;10.30;1.98;;;23.80;86.10;;;;;;7577806;77;26262;-57
2022/08/28 11:47:51;;;;;;;6.95;2.45;;;23.90;88.60;;;;;;7550469;77;26233;-56
2022/08/28 11:58:21;;;;;;;4.92;2.22;;;24.00;85.70;;;;;;7523067;78;26860;-57
2022/08/28 12:08:54;;;;;;;10.78;2.22;;;24.00;88.70;;;;;;7522993;78;26240;-57
2022/08/28 12:19:00;;;;;;;7.67;2.17;;;24.00;88.00;;;;;;7553394;77;26308;-58
2022/08/28 12:29:08;;;;;;;2.92;1.85;;;24.00;84.10;;;;;;7577814;77;26242;-57
2022/08/28 12:39:17;;;;;;;6.97;2.20;;;24.00;86.20;;;;;;7513942;78;26314;-54
2022/08/28 12:49:29;;;;;;;6.62;2.60;;;24.10;87.40;;;;;;7547908;77;26578;-55
2022/08/28 12:59:40;;;;;;;4.70;2.15;;;24.10;83.50;;;;;;7577410;77;26309;-60
2022/08/28 13:09:46;;;;;;;7.95;2.70;;;24.10;86.80;;;;;;7577734;77;26293;-59
2022/08/28 13:19:52;;;;;;;7.90;3.02;;;24.10;86.70;;;;;;7538434;78;26299;-59
2022/08/28 13:30:19;;;;;;;5.33;2.15;;;24.20;84.20;;;;;;7520324;78;26259;-55
2022/08/28 13:40:26;;;;;;;6.67;2.65;;;24.20;86.20;;;;;;7571579;77;26313;-58
2022/08/28 13:50:29;;;;;;;7.47;3.77;;;24.20;85.30;;;;;;7568272;77;26344;-60
2022/08/28 14:00:35;;;;;;;5.70;3.02;;;24.20;83.10;;;;;;7577656;77;26258;-58
2022/08/28 14:10:38;;;;;;;8.23;3.45;;;24.20;83.70;;;;;;7574286;77;26695;-59
2022/08/28 14:20:40;;;;;;;7.05;3.62;;;24.20;83.30;;;;;;7562983;77;26234;-56
2022/08/28 14:30:45;;;;;;;13.72;3.80;;;24.20;78.60;;;;;;7575762;77;26278;-58
2022/08/28 14:40:48;;;;;;;7.12;3.42;;;24.20;78.80;;;;;;7577842;77;26258;-57
2022/08/28 14:50:51;;;;;;;7.47;3.27;;;24.20;81.80;;;;;;7572213;77;26246;-58
2022/08/28 15:00:53;;;;;;;8.95;3.20;;;24.20;79.10;;;;;;7577722;77;26783;-56
2022/08/28 15:10:56;;;;;;;5.50;3.37;;;24.20;80.00;;;;;;7577406;77;26328;-57
2022/08/28 15:20:58;;;;;;;6.45;3.15;;;24.30;81.80;;;;;;7572996;77;26254;-57
2022/08/28 15:31:01;;;;;;;7.87;3.35;;;24.30;81.50;;;;;;7577714;77;26783;-58
2022/08/28 15:41:23;;;;;;;4.33;2.55;;;24.30;82.00;;;;;;7577538;77;26323;-57
2022/08/28 15:51:26;;;;;;;5.05;2.60;;;24.30;80.00;;;;;;7572341;77;26841;-59
2022/08/28 16:01:28;;;;;;;4.80;2.67;;;24.30;80.90;;;;;;7578128;77;26246;-60
2022/08/28 16:11:31;;;;;;;4.35;2.00;;;24.30;80.00;;;;;;7577737;77;26246;-58
2022/08/28 16:21:34;;;;;;;5.17;2.62;;;24.30;78.20;;;;;;7572662;77;26755;-57
2022/08/28 16:31:36;;;;;;;7.50;2.58;;;24.40;80.90;;;;;;7443562;74;26303;-57
2022/08/28 16:41:40;;;;;;;5.87;2.40;;;24.40;79.90;;;;;;7315885;80;26924;-58
2022/08/28 16:51:42;;;;;;;4.05;2.15;;;24.30;77.50;;;;;;7422496;79;26346;-56
2022/08/28 17:01:47;;;;;;;4.15;2.25;;;24.30;78.80;;;;;;7430524;79;26384;-59
2022/08/28 17:11:49;;;;;;;4.62;1.92;;;24.30;79.50;;;;;;7432053;79;26322;-60
2022/08/28 17:32:13;;;;;;;3.27;1.70;;;24.30;75.80;;;;;;7427910;79;26760;-57
2022/08/28 17:42:15;;;;;;;2.58;1.65;;;24.30;79.40;;;;;;7434334;79;26361;-58
2022/08/28 17:52:18;;;;;;;3.40;1.70;;;24.30;81.10;;;;;;7409624;79;26773;-58
2022/08/28 18:02:20;;;;;;;6.28;2.22;;;24.20;80.30;;;;;;7434990;79;26322;-57
2022/08/28 18:12:23;;;;;;;4.17;1.87;;;24.20;78.50;;;;;;7435878;79;26255;-58
2022/08/28 18:22:26;;;;;;;2.67;1.52;;;24.20;81.60;;;;;;7402225;79;26333;-58
2022/08/28 18:32:29;;;;;;;4.62;1.80;;;24.20;82.00;;;;;;7430889;80;26757;-58
2022/08/28 18:42:32;;;;;;;3.60;1.50;;;24.20;82.30;;;;;;7435210;79;26259;-58
2022/08/28 18:52:34;;;;;;;5.87;2.00;;;24.10;82.30;;;;;;7380035;79;26240;-57
2022/08/28 19:02:37;;;;;;;3.08;1.40;;;24.10;79.00;;;;;;7316318;80;26335;-57
2022/08/28 19:12:40;;;;;;;14.30;3.40;;;24.10;82.50;;;;;;7319195;80;26295;-57
2022/08/28 19:22:43;;;;;;;9.43;2.05;;;24.10;82.20;;;;;;7371465;78;26357;-59
2022/08/28 19:32:47;;;;;;;10.68;1.92;;;24.00;82.50;;;;;;7396929;79;26357;-57
2022/08/28 19:42:50;;;;;;;8.53;2.25;;;24.00;82.60;;;;;;7434474;79;26260;-57
2022/08/28 19:52:52;;;;;;;6.22;2.40;;;24.00;82.40;;;;;;7341590;80;26252;-57
2022/08/28 20:02:56;;;;;;;7.08;2.52;;;24.00;83.10;;;;;;7421677;79;26279;-57
2022/08/28 20:12:59;;;;;;;10.15;2.22;;;24.00;83.00;;;;;;7413105;79;26255;-56
2022/08/28 20:23:02;;;;;;;9.05;2.85;;;23.90;83.20;;;;;;7387806;79;26345;-57
2022/08/28 20:33:05;;;;;;;10.60;2.60;;;23.90;83.60;;;;;;7392220;79;27100;-56
2022/08/28 20:43:07;;;;;;;11.93;2.60;;;23.90;83.50;;;;;;7385176;80;26255;-58
2022/08/28 20:53:10;;;;;;;9.45;2.20;;;23.80;83.80;;;;;;7392152;79;26256;-56
2022/08/28 21:03:12;;;;;;;6.15;2.27;;;23.80;84.00;;;;;;7391906;79;26300;-57
2022/08/28 21:13:15;;;;;;;4.08;1.75;;;23.80;84.50;;;;;;7388087;80;26334;-58
2022/08/28 21:23:17;;;;;;;8.20;1.87;;;23.70;84.60;;;;;;7304869;81;26290;-58
2022/08/28 21:33:21;;;;;;;12.45;2.10;;;23.70;85.50;;;;;;7593583;76;26256;-59
2022/08/28 21:43:23;;;;;;;6.15;2.10;;;23.70;85.70;;;;;;7601640;76;26273;-57
2022/08/28 21:53:26;;;;;;;9.50;2.47;;;23.60;85.90;;;;;;7615886;76;26821;-57
2022/08/28 22:03:29;;;;;;;8.75;2.47;;;23.60;86.20;;;;;;7625052;76;26232;-56
2022/08/28 22:13:31;;;;;;;4.92;1.62;;;23.60;86.20;;;;;;7623097;76;26255;-57
2022/08/28 22:23:36;;;;;;;2.77;1.65;;;23.50;86.10;;;;;;7568725;77;26255;-57
2022/08/28 22:33:38;;;;;;;6.30;2.22;;;23.50;86.10;;;;;;7574083;77;26340;-57
2022/08/28 22:43:41;;;;;;;9.90;1.87;;;23.50;86.10;;;;;;7574708;77;26341;-57
2022/08/28 22:53:43;;;;;;;7.45;1.80;;;23.50;85.80;;;;;;7626484;76;26243;-58
2022/08/28 23:03:47;;;;;;;4.65;1.98;;;23.40;85.60;;;;;;7626851;77;26741;-58
2022/08/28 23:13:49;;;;;;;2.35;1.50;;;23.40;85.70;;;;;;7633531;76;26318;-58
2022/08/28 23:23:52;;;;;;;5.35;2.02;;;23.40;85.60;;;;;;7626788;76;26232;-58
2022/08/28 23:33:54;;;;;;;6.22;1.95;;;23.40;85.40;;;;;;7622928;76;26811;-59
2022/08/28 23:43:57;;;;;;;6.03;1.75;;;23.30;85.40;;;;;;7633329;76;26303;-58
2022/08/28 23:53:59;;;;;;;5.05;2.00;;;23.30;85.50;;;;;;7627246;76;26306;-57
